sensor_id;sensor_type;location;lat;lon;timestamp;pressure;altitude;pressure_sealevel;temperature;humidity
63819;BME280;49970;54.976;73.248;2023-11-19T00:02:21;99706.69;;;-6.08;100.00
63819;BME280;49970;54.976;73.248;2023-11-19T00:04:47;99714.50;;;-6.15;100.00
63819;BME280;49970;54.976;73.248;2023-11-19T00:07:14;99731.75;;;-6.20;100.00
63819;BME280;49970;54.976;73.248;2023-11-19T00:09:40;99739.56;;;-6.25;100.00
63819;BME280;49970;54.976;73.248;2023-11-19T00:12:07;99743.91;;;-6.30;100.00
63819;BME280;49970;54.976;73.248;2023-11-19T00:14:33;99750.78;;;-6.29;100.00
63819;BME280;49970;54.976;73.248;2023-11-19T00:17:00;99742.16;;;-6.28;100.00
63819;BME280;49970;54.976;73.248;2023-11-19T00:19:27;99766.13;;;-6.20;100.00
63819;BME280;49970;54.976;73.248;2023-11-19T00:21:53;99770.41;;;-6.19;100.00
63819;BME280;49970;54.976;73.248;2023-11-19T00:24:19;99778.16;;;-6.20;100.00
63819;BME280;49970;54.976;73.248;2023-11-19T00:27:00;99789.38;;;-6.24;100.00
63819;BME280;49970;54.976;73.248;2023-11-19T00:29:26;99809.19;;;-6.30;100.00
63819;BME280;49970;54.976;73.248;2023-11-19T00:31:53;99823.00;;;-6.37;100.00
63819;BME280;49970;54.976;73.248;2023-11-19T00:34:19;99827.44;;;-6.49;100.00
63819;BME280;49970;54.976;73.248;2023-11-19T00:36:47;99831.81;;;-6.56;100.00
63819;BME280;49970;54.976;73.248;2023-11-19T00:39:13;99842.91;;;-6.53;100.00
63819;BME280;49970;54.976;73.248;2023-11-19T00:41:41;99860.13;;;-6.58;100.00
63819;BME280;49970;54.976;73.248;2023-11-19T00:44:07;99860.19;;;-6.65;100.00
63819;BME280;49970;54.976;73.248;2023-11-19T00:46:33;99881.72;;;-6.72;100.00
63819;BME280;49970;54.976;73.248;2023-11-19T00:48:59;99891.19;;;-6.78;100.00
63819;BME280;49970;54.976;73.248;2023-11-19T00:51:26;99900.66;;;-6.77;100.00
63819;BME280;49970;54.976;73.248;2023-11-19T00:53:53;99902.38;;;-6.80;100.00
63819;BME280;49970;54.976;73.248;2023-11-19T00:56:19;99915.25;;;-6.82;100.00
63819;BME280;49970;54.976;73.248;2023-11-19T00:58:45;99927.31;;;-6.85;100.00
63819;BME280;49970;54.976;73.248;2023-11-19T01:01:12;99944.50;;;-6.92;100.00
63819;BME280;49970;54.976;73.248;2023-11-19T01:03:38;99957.38;;;-6.90;100.00
63819;BME280;49970;54.976;73.248;2023-11-19T01:06:04;99970.25;;;-6.90;100.00
63819;BME280;49970;54.976;73.248;2023-11-19T01:08:31;99982.28;;;-6.92;100.00
63819;BME280;49970;54.976;73.248;2023-11-19T01:10:57;99990.84;;;-6.92;100.00
63819;BME280;49970;54.976;73.248;2023-11-19T01:13:23;99994.25;;;-6.90;100.00
63819;BME280;49970;54.976;73.248;2023-11-19T01:15:50;100014.91;;;-6.93;100.00
63819;BME280;49970;54.976;73.248;2023-11-19T01:18:17;100009.72;;;-6.94;100.00
63819;BME280;49970;54.976;73.248;2023-11-19T01:20:43;100015.75;;;-6.98;100.00
63819;BME280;49970;54.976;73.248;2023-11-19T01:23:09;100025.22;;;-6.99;100.00
63819;BME280;49970;54.976;73.248;2023-11-19T01:25:35;100021.81;;;-7.06;99.75
63819;BME280;49970;54.976;73.248;2023-11-19T01:28:04;100041.56;;;-7.11;99.78
63819;BME280;49970;54.976;73.248;2023-11-19T01:30:30;100039.88;;;-7.16;99.41
63819;BME280;49970;54.976;73.248;2023-11-19T01:32:56;100046.75;;;-7.20;99.40
63819;BME280;49970;54.976;73.248;2023-11-19T01:35:22;100054.47;;;-7.17;99.27
63819;BME280;49970;54.976;73.248;2023-11-19T01:37:49;100063.03;;;-7.13;99.52
63819;BME280;49970;54.976;73.248;2023-11-19T01:40:20;100070.72;;;-7.15;99.28
63819;BME280;49970;54.976;73.248;2023-11-19T01:42:46;100077.59;;;-7.11;99.35
63819;BME280;49970;54.976;73.248;2023-11-19T01:45:22;100088.75;;;-7.09;99.67
63819;BME280;49970;54.976;73.248;2023-11-19T01:47:52;100088.75;;;-7.06;99.51
63819;BME280;49970;54.976;73.248;2023-11-19T01:50:19;100105.03;;;-7.05;99.87
63819;BME280;49970;54.976;73.248;2023-11-19T01:52:46;100102.44;;;-7.04;100.00
63819;BME280;49970;54.976;73.248;2023-11-19T01:55:13;100112.75;;;-7.00;100.00
63819;BME280;49970;54.976;73.248;2023-11-19T01:57:40;100118.75;;;-7.00;99.72
63819;BME280;49970;54.976;73.248;2023-11-19T02:00:08;100132.47;;;-7.03;99.79
63819;BME280;49970;54.976;73.248;2023-11-19T02:02:40;100123.09;;;-7.14;99.57
63819;BME280;49970;54.976;73.248;2023-11-19T02:05:07;100145.38;;;-7.15;98.90
63819;BME280;49970;54.976;73.248;2023-11-19T02:07:33;100157.41;;;-7.14;98.69
63819;BME280;49970;54.976;73.248;2023-11-19T02:09:59;100159.97;;;-7.15;98.69
63819;BME280;49970;54.976;73.248;2023-11-19T02:12:28;100168.56;;;-7.18;99.18
63819;BME280;49970;54.976;73.248;2023-11-19T02:14:54;100178.00;;;-7.21;98.83
63819;BME280;49970;54.976;73.248;2023-11-19T02:17:30;100184.00;;;-7.29;98.83
63819;BME280;49970;54.976;73.248;2023-11-19T02:20:00;100180.59;;;-7.38;98.85
63819;BME280;49970;54.976;73.248;2023-11-19T02:22:27;100200.31;;;-7.37;98.32
63819;BME280;49970;54.976;73.248;2023-11-19T02:24:59;100180.59;;;-7.55;98.36
63819;BME280;49970;54.976;73.248;2023-11-19T02:27:53;100219.16;;;-7.44;97.82
63819;BME280;49970;54.976;73.248;2023-11-19T02:30:24;100225.19;;;-7.47;97.90
63819;BME280;49970;54.976;73.248;2023-11-19T02:32:57;100227.75;;;-7.45;98.01
63819;BME280;49970;54.976;73.248;2023-11-19T02:35:25;100230.34;;;-7.44;98.45
63819;BME280;49970;54.976;73.248;2023-11-19T02:37:57;100244.88;;;-7.41;98.45
63819;BME280;49970;54.976;73.248;2023-11-19T02:40:24;100244.88;;;-7.41;98.43
63819;BME280;49970;54.976;73.248;2023-11-19T02:42:51;100246.63;;;-7.43;98.91
63819;BME280;49970;54.976;73.248;2023-11-19T02:45:17;100262.06;;;-7.43;97.81
63819;BME280;49970;54.976;73.248;2023-11-19T02:47:44;100268.91;;;-7.45;98.33
63819;BME280;49970;54.976;73.248;2023-11-19T02:50:13;100255.16;;;-7.54;97.85
63819;BME280;49970;54.976;73.248;2023-11-19T02:52:44;100280.06;;;-7.48;97.50
63819;BME280;49970;54.976;73.248;2023-11-19T02:55:12;100280.91;;;-7.50;97.37
63819;BME280;49970;54.976;73.248;2023-11-19T02:57:39;100288.59;;;-7.49;98.34
63819;BME280;49970;54.976;73.248;2023-11-19T03:00:13;100303.19;;;-7.49;98.16
63819;BME280;49970;54.976;73.248;2023-11-19T03:02:40;100303.19;;;-7.51;97.90
63819;BME280;49970;54.976;73.248;2023-11-19T03:05:12;100309.22;;;-7.52;98.56
63819;BME280;49970;54.976;73.248;2023-11-19T03:07:41;100314.31;;;-7.54;98.02
63819;BME280;49970;54.976;73.248;2023-11-19T03:10:19;100328.03;;;-7.53;98.36
63819;BME280;49970;54.976;73.248;2023-11-19T03:12:46;100338.34;;;-7.55;97.69
63819;BME280;49970;54.976;73.248;2023-11-19T03:15:12;100349.44;;;-7.62;97.44
63819;BME280;49970;54.976;73.248;2023-11-19T03:17:39;100350.31;;;-7.64;97.51
63819;BME280;49970;54.976;73.248;2023-11-19T03:20:07;100360.59;;;-7.66;97.96
63819;BME280;49970;54.976;73.248;2023-11-19T03:22:37;100366.56;;;-7.70;97.32
63819;BME280;49970;54.976;73.248;2023-11-19T03:25:04;100381.16;;;-7.61;98.29
63819;BME280;49970;54.976;73.248;2023-11-19T03:27:30;100388.91;;;-7.58;98.17
63819;BME280;49970;54.976;73.248;2023-11-19T03:29:56;100392.34;;;-7.55;97.69
63819;BME280;49970;54.976;73.248;2023-11-19T03:32:23;100404.38;;;-7.52;97.56
63819;BME280;49970;54.976;73.248;2023-11-19T03:34:49;100410.38;;;-7.48;97.61
63819;BME280;49970;54.976;73.248;2023-11-19T03:37:15;100411.25;;;-7.42;98.26
63819;BME280;49970;54.976;73.248;2023-11-19T03:39:43;100423.28;;;-7.36;98.02
63819;BME280;49970;54.976;73.248;2023-11-19T03:42:09;100431.00;;;-7.38;98.09
63819;BME280;49970;54.976;73.248;2023-11-19T03:44:35;100446.41;;;-7.41;98.39
63819;BME280;49970;54.976;73.248;2023-11-19T03:47:02;100449.84;;;-7.43;98.15
63819;BME280;49970;54.976;73.248;2023-11-19T03:49:28;100456.72;;;-7.38;98.35
63819;BME280;49970;54.976;73.248;2023-11-19T03:51:54;100457.59;;;-7.37;98.63
63819;BME280;49970;54.976;73.248;2023-11-19T03:54:20;100471.31;;;-7.32;98.19
63819;BME280;49970;54.976;73.248;2023-11-19T03:56:48;100475.63;;;-7.28;98.74
63819;BME280;49970;54.976;73.248;2023-11-19T03:59:15;100481.66;;;-7.26;98.31
63819;BME280;49970;54.976;73.248;2023-11-19T04:01:42;100485.94;;;-7.27;98.71
63819;BME280;49970;54.976;73.248;2023-11-19T04:04:08;100497.94;;;-7.29;98.20
63819;BME280;49970;54.976;73.248;2023-11-19T04:06:34;100507.38;;;-7.29;98.39
63819;BME280;49970;54.976;73.248;2023-11-19T04:09:01;100508.22;;;-7.30;97.77
63819;BME280;49970;54.976;73.248;2023-11-19T04:11:27;100518.50;;;-7.29;98.43
63819;BME280;49970;54.976;73.248;2023-11-19T04:13:54;100515.94;;;-7.29;98.21
63819;BME280;49970;54.976;73.248;2023-11-19T04:16:26;100530.53;;;-7.29;98.25
63819;BME280;49970;54.976;73.248;2023-11-19T04:18:54;100536.50;;;-7.33;98.14
63819;BME280;49970;54.976;73.248;2023-11-19T04:21:20;100548.50;;;-7.37;97.96
63819;BME280;49970;54.976;73.248;2023-11-19T04:23:49;100552.78;;;-7.39;98.21
63819;BME280;49970;54.976;73.248;2023-11-19T04:26:15;100558.81;;;-7.35;98.09
63819;BME280;49970;54.976;73.248;2023-11-19T04:28:41;100562.22;;;-7.39;97.79
63819;BME280;49970;54.976;73.248;2023-11-19T04:31:07;100575.13;;;-7.30;98.41
63819;BME280;49970;54.976;73.248;2023-11-19T04:33:35;100575.97;;;-7.33;97.90
63819;BME280;49970;54.976;73.248;2023-11-19T04:36:01;100574.25;;;-7.32;97.89
63819;BME280;49970;54.976;73.248;2023-11-19T04:38:28;100574.22;;;-7.38;98.24
63819;BME280;49970;54.976;73.248;2023-11-19T04:40:54;100594.88;;;-7.29;98.33
63819;BME280;49970;54.976;73.248;2023-11-19T04:43:23;100597.44;;;-7.28;98.20
63819;BME280;49970;54.976;73.248;2023-11-19T04:45:49;100605.16;;;-7.29;97.70
63819;BME280;49970;54.976;73.248;2023-11-19T04:48:15;100610.31;;;-7.29;98.09
63819;BME280;49970;54.976;73.248;2023-11-19T04:50:41;100620.63;;;-7.26;98.44
63819;BME280;49970;54.976;73.248;2023-11-19T04:53:07;100624.06;;;-7.24;98.52
63819;BME280;49970;54.976;73.248;2023-11-19T04:55:34;100625.78;;;-7.20;97.94
63819;BME280;49970;54.976;73.248;2023-11-19T04:58:00;100643.00;;;-7.14;98.16
63819;BME280;49970;54.976;73.248;2023-11-19T05:00:26;100642.16;;;-7.12;98.25
63819;BME280;49970;54.976;73.248;2023-11-19T05:02:52;100648.16;;;-7.13;97.85
63819;BME280;49970;54.976;73.248;2023-11-19T05:05:19;100647.31;;;-7.10;98.31
63819;BME280;49970;54.976;73.248;2023-11-19T05:07:45;100665.34;;;-7.09;98.14
63819;BME280;49970;54.976;73.248;2023-11-19T05:10:11;100667.94;;;-7.04;97.97
63819;BME280;49970;54.976;73.248;2023-11-19T05:12:37;100664.47;;;-7.08;98.22
63819;BME280;49970;54.976;73.248;2023-11-19T05:15:05;100677.41;;;-7.02;98.18
63819;BME280;49970;54.976;73.248;2023-11-19T05:17:31;100678.28;;;-6.96;98.37
63819;BME280;49970;54.976;73.248;2023-11-19T05:19:57;100680.84;;;-7.01;98.15
63819;BME280;49970;54.976;73.248;2023-11-19T05:22:24;100680.81;;;-7.06;98.21
63819;BME280;49970;54.976;73.248;2023-11-19T05:24:50;100682.53;;;-7.05;98.15
63819;BME280;49970;54.976;73.248;2023-11-19T05:27:16;100688.59;;;-6.98;97.94
63819;BME280;49970;54.976;73.248;2023-11-19T05:29:42;100686.03;;;-6.92;98.06
63819;BME280;49970;54.976;73.248;2023-11-19T05:32:10;100703.25;;;-6.83;98.79
63819;BME280;49970;54.976;73.248;2023-11-19T05:34:36;100710.97;;;-6.83;98.87
63819;BME280;49970;54.976;73.248;2023-11-19T05:37:02;100716.13;;;-6.85;98.52
63819;BME280;49970;54.976;73.248;2023-11-19T05:39:28;100723.00;;;-6.84;98.14
63819;BME280;49970;54.976;73.248;2023-11-19T05:41:55;100721.28;;;-6.85;98.32
63819;BME280;49970;54.976;73.248;2023-11-19T05:44:21;100724.66;;;-6.93;97.96
63819;BME280;49970;54.976;73.248;2023-11-19T05:46:48;100724.66;;;-6.92;98.16
63819;BME280;49970;54.976;73.248;2023-11-19T05:49:14;100728.94;;;-6.91;98.26
63819;BME280;49970;54.976;73.248;2023-11-19T05:51:40;100741.00;;;-6.88;98.16
63819;BME280;49970;54.976;73.248;2023-11-19T05:54:08;100735.84;;;-6.88;98.25
63819;BME280;49970;54.976;73.248;2023-11-19T05:56:34;100738.44;;;-6.87;98.26
63819;BME280;49970;54.976;73.248;2023-11-19T05:59:01;100746.19;;;-6.85;98.35
63819;BME280;49970;54.976;73.248;2023-11-19T06:01:29;100749.63;;;-6.85;98.18
63819;BME280;49970;54.976;73.248;2023-11-19T06:03:55;100754.72;;;-6.89;98.17
63819;BME280;49970;54.976;73.248;2023-11-19T06:09:51;100767.66;;;-6.79;98.55
63819;BME280;49970;54.976;73.248;2023-11-19T06:12:17;100774.56;;;-6.74;98.79
63819;BME280;49970;54.976;73.248;2023-11-19T06:14:44;100777.13;;;-6.73;98.67
63819;BME280;49970;54.976;73.248;2023-11-19T06:17:10;100781.47;;;-6.70;98.64
63819;BME280;49970;54.976;73.248;2023-11-19T06:19:37;100787.47;;;-6.71;98.73
63819;BME280;49970;54.976;73.248;2023-11-19T06:22:06;100802.00;;;-6.80;98.10
63819;BME280;49970;54.976;73.248;2023-11-19T06:24:32;100800.25;;;-6.84;98.04
63819;BME280;49970;54.976;73.248;2023-11-19T06:26:59;100809.72;;;-6.80;98.30
63819;BME280;49970;54.976;73.248;2023-11-19T06:29:25;100804.59;;;-6.81;98.58
63819;BME280;49970;54.976;73.248;2023-11-19T06:31:51;100820.06;;;-6.77;98.45
63819;BME280;49970;54.976;73.248;2023-11-19T06:34:18;100816.63;;;-6.75;98.63
63819;BME280;49970;54.976;73.248;2023-11-19T06:36:44;100819.25;;;-6.72;98.61
63819;BME280;49970;54.976;73.248;2023-11-19T06:39:10;100818.38;;;-6.71;98.57
63819;BME280;49970;54.976;73.248;2023-11-19T06:41:37;100826.97;;;-6.71;98.41
63819;BME280;49970;54.976;73.248;2023-11-19T06:44:05;100839.84;;;-6.72;98.58
63819;BME280;49970;54.976;73.248;2023-11-19T06:46:31;100844.16;;;-6.70;98.53
63819;BME280;49970;54.976;73.248;2023-11-19T06:48:57;100845.84;;;-6.69;98.36
63819;BME280;49970;54.976;73.248;2023-11-19T06:51:23;100853.63;;;-6.67;98.24
63819;BME280;49970;54.976;73.248;2023-11-19T06:53:53;100864.78;;;-6.68;98.28
63819;BME280;49970;54.976;73.248;2023-11-19T06:56:23;100854.44;;;-6.70;98.10
63819;BME280;49970;54.976;73.248;2023-11-19T06:58:50;100862.22;;;-6.67;98.32
63819;BME280;49970;54.976;73.248;2023-11-19T07:01:17;100869.94;;;-6.67;98.34
63819;BME280;49970;54.976;73.248;2023-11-19T07:03:47;100880.28;;;-6.64;98.39
63819;BME280;49970;54.976;73.248;2023-11-19T07:06:14;100877.69;;;-6.61;98.43
63819;BME280;49970;54.976;73.248;2023-11-19T07:08:43;100876.84;;;-6.61;98.04
63819;BME280;49970;54.976;73.248;2023-11-19T07:11:13;100886.28;;;-6.62;98.32
63819;BME280;49970;54.976;73.248;2023-11-19T07:13:42;100880.28;;;-6.61;98.13
63819;BME280;49970;54.976;73.248;2023-11-19T07:16:09;100881.16;;;-6.59;98.44
63819;BME280;49970;54.976;73.248;2023-11-19T07:18:37;100890.56;;;-6.61;98.38
63819;BME280;49970;54.976;73.248;2023-11-19T07:21:04;100883.72;;;-6.62;98.29
63819;BME280;49970;54.976;73.248;2023-11-19T07:23:30;100897.44;;;-6.63;98.14
63819;BME280;49970;54.976;73.248;2023-11-19T07:25:57;100900.84;;;-6.65;98.09
63819;BME280;49970;54.976;73.248;2023-11-19T07:28:23;100900.00;;;-6.66;98.53
63819;BME280;49970;54.976;73.248;2023-11-19T07:30:49;100912.88;;;-6.66;97.82
63819;BME280;49970;54.976;73.248;2023-11-19T07:33:15;100913.72;;;-6.67;98.13
63819;BME280;49970;54.976;73.248;2023-11-19T07:35:42;100910.28;;;-6.66;98.19
63819;BME280;49970;54.976;73.248;2023-11-19T07:38:09;100912.91;;;-6.63;98.23
63819;BME280;49970;54.976;73.248;2023-11-19T07:40:35;100907.78;;;-6.58;98.46
63819;BME280;49970;54.976;73.248;2023-11-19T07:43:01;100911.25;;;-6.55;98.41
63819;BME280;49970;54.976;73.248;2023-11-19T07:45:28;100914.69;;;-6.53;98.18
63819;BME280;49970;54.976;73.248;2023-11-19T07:47:54;100916.41;;;-6.56;98.24
63819;BME280;49970;54.976;73.248;2023-11-19T07:50:20;100925.00;;;-6.56;98.37
63819;BME280;49970;54.976;73.248;2023-11-19T07:52:47;100930.16;;;-6.56;98.64
63819;BME280;49970;54.976;73.248;2023-11-19T07:55:13;100927.56;;;-6.56;98.14
63819;BME280;49970;54.976;73.248;2023-11-19T07:57:39;100934.41;;;-6.59;97.95
63819;BME280;49970;54.976;73.248;2023-11-19T08:00:06;100930.03;;;-6.65;97.89
63819;BME280;49970;54.976;73.248;2023-11-19T08:02:38;100936.09;;;-6.64;97.80
63819;BME280;49970;54.976;73.248;2023-11-19T08:05:05;100940.34;;;-6.65;97.87
63819;BME280;49970;54.976;73.248;2023-11-19T08:07:31;100937.75;;;-6.69;97.85
63819;BME280;49970;54.976;73.248;2023-11-19T08:09:57;100951.47;;;-6.70;97.92
63819;BME280;49970;54.976;73.248;2023-11-19T08:12:24;100953.19;;;-6.71;97.51
63819;BME280;49970;54.976;73.248;2023-11-19T08:14:50;100954.91;;;-6.70;97.91
63819;BME280;49970;54.976;73.248;2023-11-19T08:17:16;100962.63;;;-6.71;97.92
63819;BME280;49970;54.976;73.248;2023-11-19T08:19:42;100976.38;;;-6.71;97.82
63819;BME280;49970;54.976;73.248;2023-11-19T08:22:09;100984.97;;;-6.69;98.14
63819;BME280;49970;54.976;73.248;2023-11-19T08:24:35;100982.47;;;-6.64;98.33
63819;BME280;49970;54.976;73.248;2023-11-19T08:27:01;100984.19;;;-6.63;97.47
63819;BME280;49970;54.976;73.248;2023-11-19T08:29:28;100979.94;;;-6.60;98.11
63819;BME280;49970;54.976;73.248;2023-11-19T08:31:54;100985.06;;;-6.61;98.23
63819;BME280;49970;54.976;73.248;2023-11-19T08:34:20;100985.91;;;-6.62;97.51
63819;BME280;49970;54.976;73.248;2023-11-19T08:36:50;100994.44;;;-6.66;97.74
63819;BME280;49970;54.976;73.248;2023-11-19T08:39:16;100992.69;;;-6.69;97.71
63819;BME280;49970;54.976;73.248;2023-11-19T08:41:42;101006.44;;;-6.71;97.67
63819;BME280;49970;54.976;73.248;2023-11-19T08:44:09;101008.97;;;-6.74;97.33
63819;BME280;49970;54.976;73.248;2023-11-19T08:46:35;101012.34;;;-6.80;97.49
63819;BME280;49970;54.976;73.248;2023-11-19T08:49:01;101014.03;;;-6.85;97.41
63819;BME280;49970;54.976;73.248;2023-11-19T08:51:28;101011.38;;;-6.90;97.20
63819;BME280;49970;54.976;73.248;2023-11-19T08:53:55;101014.78;;;-6.92;97.30
63819;BME280;49970;54.976;73.248;2023-11-19T08:56:21;101015.66;;;-6.92;97.21
63819;BME280;49970;54.976;73.248;2023-11-19T08:58:47;101014.78;;;-6.91;97.62
63819;BME280;49970;54.976;73.248;2023-11-19T09:01:14;101019.94;;;-6.91;97.38
63819;BME280;49970;54.976;73.248;2023-11-19T09:03:40;101025.94;;;-6.90;97.08
63819;BME280;49970;54.976;73.248;2023-11-19T09:06:06;101023.38;;;-6.93;97.72
63819;BME280;49970;54.976;73.248;2023-11-19T09:08:33;101037.19;;;-6.85;97.69
63819;BME280;49970;54.976;73.248;2023-11-19T09:10:59;101040.63;;;-6.85;97.59
63819;BME280;49970;54.976;73.248;2023-11-19T09:13:25;101039.78;;;-6.85;97.74
63819;BME280;49970;54.976;73.248;2023-11-19T09:15:51;101043.22;;;-6.85;97.92
63819;BME280;49970;54.976;73.248;2023-11-19T09:18:17;101046.66;;;-6.84;97.56
63819;BME280;49970;54.976;73.248;2023-11-19T09:20:44;101050.94;;;-6.85;97.71
63819;BME280;49970;54.976;73.248;2023-11-19T09:23:11;101051.78;;;-6.84;97.64
63819;BME280;49970;54.976;73.248;2023-11-19T09:25:38;101055.22;;;-6.85;97.65
63819;BME280;49970;54.976;73.248;2023-11-19T09:28:04;101065.47;;;-6.88;97.32
63819;BME280;49970;54.976;73.248;2023-11-19T09:30:31;101066.28;;;-6.91;97.07
63819;BME280;49970;54.976;73.248;2023-11-19T09:32:59;101077.44;;;-6.92;97.34
63819;BME280;49970;54.976;73.248;2023-11-19T09:35:25;101078.31;;;-6.93;97.51
63819;BME280;49970;54.976;73.248;2023-11-19T09:37:51;101084.28;;;-6.94;97.25
63819;BME280;49970;54.976;73.248;2023-11-19T09:40:18;101090.28;;;-6.95;97.60
63819;BME280;49970;54.976;73.248;2023-11-19T09:42:44;101086.03;;;-6.93;97.12
63819;BME280;49970;54.976;73.248;2023-11-19T09:45:17;101081.69;;;-6.94;97.36
63819;BME280;49970;54.976;73.248;2023-11-19T09:47:46;101089.41;;;-6.97;97.06
63819;BME280;49970;54.976;73.248;2023-11-19T09:50:18;101091.94;;;-6.98;97.50
63819;BME280;49970;54.976;73.248;2023-11-19T09:52:47;101091.94;;;-7.02;96.98
63819;BME280;49970;54.976;73.248;2023-11-19T09:55:14;101090.97;;;-7.07;97.11
63819;BME280;49970;54.976;73.248;2023-11-19T09:57:40;101101.31;;;-7.05;97.02
63819;BME280;49970;54.976;73.248;2023-11-19T10:00:08;101101.25;;;-7.10;96.81
63819;BME280;49970;54.976;73.248;2023-11-19T10:02:37;101102.06;;;-7.12;97.24
63819;BME280;49970;54.976;73.248;2023-11-19T10:05:06;101096.88;;;-7.15;96.78
63819;BME280;49970;54.976;73.248;2023-11-19T10:07:33;101111.50;;;-7.13;97.25
63819;BME280;49970;54.976;73.248;2023-11-19T10:10:01;101114.94;;;-7.14;96.77
63819;BME280;49970;54.976;73.248;2023-11-19T10:12:28;101113.19;;;-7.15;96.97
63819;BME280;49970;54.976;73.248;2023-11-19T10:14:56;101116.59;;;-7.17;96.83
63819;BME280;49970;54.976;73.248;2023-11-19T10:17:33;101127.75;;;-7.18;97.22
63819;BME280;49970;54.976;73.248;2023-11-19T10:20:01;101135.47;;;-7.18;96.84
63819;BME280;49970;54.976;73.248;2023-11-19T10:22:30;101148.34;;;-7.17;97.09
63819;BME280;49970;54.976;73.248;2023-11-19T10:24:56;101156.09;;;-7.15;96.77
63819;BME280;49970;54.976;73.248;2023-11-19T10:27:24;101153.50;;;-7.17;96.95
63819;BME280;49970;54.976;73.248;2023-11-19T10:29:51;101157.78;;;-7.19;96.82
63819;BME280;49970;54.976;73.248;2023-11-19T10:32:17;101168.06;;;-7.19;96.65
63819;BME280;49970;54.976;73.248;2023-11-19T10:34:44;101161.16;;;-7.23;96.58
63819;BME280;49970;54.976;73.248;2023-11-19T10:37:27;101161.97;;;-7.24;97.01
63819;BME280;49970;54.976;73.248;2023-11-19T10:39:54;101172.31;;;-7.19;97.06
63819;BME280;49970;54.976;73.248;2023-11-19T10:42:21;101172.31;;;-7.19;97.38
63819;BME280;49970;54.976;73.248;2023-11-19T10:44:47;101166.31;;;-7.21;97.08
63819;BME280;49970;54.976;73.248;2023-11-19T10:47:14;101176.59;;;-7.21;96.69
63819;BME280;49970;54.976;73.248;2023-11-19T10:49:43;101178.31;;;-7.20;96.81
63819;BME280;49970;54.976;73.248;2023-11-19T10:52:11;101179.22;;;-7.18;97.16
63819;BME280;49970;54.976;73.248;2023-11-19T10:54:43;101191.31;;;-7.14;97.27
63819;BME280;49970;54.976;73.248;2023-11-19T10:57:12;101181.88;;;-7.14;97.60
63819;BME280;49970;54.976;73.248;2023-11-19T10:59:45;101191.31;;;-7.14;97.19
63819;BME280;49970;54.976;73.248;2023-11-19T11:02:16;101197.31;;;-7.14;97.32
63819;BME280;49970;54.976;73.248;2023-11-19T11:04:47;101188.69;;;-7.16;96.85
63819;BME280;49970;54.976;73.248;2023-11-19T11:07:14;101186.03;;;-7.20;97.09
63819;BME280;49970;54.976;73.248;2023-11-19T11:09:42;101192.97;;;-7.16;97.64
63819;BME280;49970;54.976;73.248;2023-11-19T11:12:09;101188.69;;;-7.16;97.26
63819;BME280;49970;54.976;73.248;2023-11-19T11:14:38;101198.97;;;-7.17;97.01
63819;BME280;49970;54.976;73.248;2023-11-19T11:17:08;101191.19;;;-7.20;97.06
63819;BME280;49970;54.976;73.248;2023-11-19T11:19:35;101208.28;;;-7.24;96.55
63819;BME280;49970;54.976;73.248;2023-11-19T11:22:04;101205.66;;;-7.29;96.17
63819;BME280;49970;54.976;73.248;2023-11-19T11:24:54;101203.81;;;-7.36;96.29
63819;BME280;49970;54.976;73.248;2023-11-19T11:27:34;101208.94;;;-7.39;96.34
63819;BME280;49970;54.976;73.248;2023-11-19T11:38:23;101217.19;;;-7.58;95.77
63819;BME280;49970;54.976;73.248;2023-11-19T11:41:18;101220.53;;;-7.62;96.17
63819;BME280;49970;54.976;73.248;2023-11-19T11:43:48;101221.31;;;-7.68;96.07
63819;BME280;49970;54.976;73.248;2023-11-19T11:49:05;101222.94;;;-7.73;96.05
63819;BME280;49970;54.976;73.248;2023-11-19T11:54:25;101221.94;;;-7.81;96.28
63819;BME280;49970;54.976;73.248;2023-11-19T11:57:08;101237.28;;;-7.84;95.75
63819;BME280;49970;54.976;73.248;2023-11-19T12:02:09;101237.13;;;-7.93;95.10
63819;BME280;49970;54.976;73.248;2023-11-19T12:04:36;101228.44;;;-7.98;95.51
63819;BME280;49970;54.976;73.248;2023-11-19T12:09:33;101236.06;;;-8.03;95.74
63819;BME280;49970;54.976;73.248;2023-11-19T12:20:07;101250.34;;;-8.19;94.91
63819;BME280;49970;54.976;73.248;2023-11-19T12:22:38;101254.56;;;-8.21;94.78
63819;BME280;49970;54.976;73.248;2023-11-19T12:25:06;101258.06;;;-8.19;95.62
63819;BME280;49970;54.976;73.248;2023-11-19T12:27:33;101256.38;;;-8.15;95.83
63819;BME280;49970;54.976;73.248;2023-11-19T12:30:03;101252.84;;;-8.22;95.23
63819;BME280;49970;54.976;73.248;2023-11-19T12:32:40;101259.78;;;-8.16;95.77
63819;BME280;49970;54.976;73.248;2023-11-19T12:35:08;101266.66;;;-8.15;95.82
63819;BME280;49970;54.976;73.248;2023-11-19T12:37:44;101280.41;;;-8.15;96.03
63819;BME280;49970;54.976;73.248;2023-11-19T12:40:24;101276.03;;;-8.19;95.73
63819;BME280;49970;54.976;73.248;2023-11-19T12:42:52;101283.69;;;-8.22;95.09
63819;BME280;49970;54.976;73.248;2023-11-19T12:45:19;101272.38;;;-8.30;95.08
63819;BME280;49970;54.976;73.248;2023-11-19T12:47:48;101282.72;;;-8.27;95.65
63819;BME280;49970;54.976;73.248;2023-11-19T12:50:16;101287.88;;;-8.25;95.06
63819;BME280;49970;54.976;73.248;2023-11-19T12:52:59;101288.75;;;-8.25;94.89
63819;BME280;49970;54.976;73.248;2023-11-19T12:55:29;101293.88;;;-8.25;95.07
63819;BME280;49970;54.976;73.248;2023-11-19T12:57:56;101290.38;;;-8.29;94.78
63819;BME280;49970;54.976;73.248;2023-11-19T13:00:25;101300.66;;;-8.29;94.82
63819;BME280;49970;54.976;73.248;2023-11-19T13:02:55;101302.38;;;-8.29;95.67
63819;BME280;49970;54.976;73.248;2023-11-19T13:05:26;101299.78;;;-8.31;95.21
63819;BME280;49970;54.976;73.248;2023-11-19T13:08:02;101303.19;;;-8.30;95.14
63819;BME280;49970;54.976;73.248;2023-11-19T13:10:29;101312.63;;;-8.31;95.80
63819;BME280;49970;54.976;73.248;2023-11-19T13:13:08;101310.84;;;-8.33;94.45
63819;BME280;49970;54.976;73.248;2023-11-19T13:15:49;101317.63;;;-8.38;95.63